createdAt,value
2018-07-22T00:01:05.271Z,19.47
2018-07-22T00:03:32.975Z,20.73
2018-07-22T00:06:00.763Z,20.10
2018-07-22T00:08:28.499Z,19.97
2018-07-22T00:10:56.222Z,19.73
2018-07-22T00:13:23.979Z,18.90
2018-07-22T00:15:51.718Z,20.80
2018-07-22T00:18:19.411Z,23.90
2018-07-22T00:20:47.190Z,25.00
2018-07-22T00:23:14.952Z,28.17
2018-07-22T00:25:42.837Z,20.60
2018-07-22T00:28:10.526Z,18.30
2018-07-22T00:30:38.334Z,20.50
2018-07-22T00:33:06.023Z,20.00
2018-07-22T00:35:33.814Z,20.57
2018-07-22T00:38:01.524Z,18.83
2018-07-22T00:40:29.218Z,19.27
2018-07-22T00:42:56.902Z,20.40
2018-07-22T00:45:24.636Z,19.73
2018-07-22T00:47:52.320Z,19.27
2018-07-22T00:50:20.043Z,19.13
2018-07-22T00:52:47.718Z,19.90
2018-07-22T00:55:15.468Z,23.13
2018-07-22T00:57:43.194Z,19.57
2018-07-22T01:00:10.940Z,22.90
2018-07-22T01:02:38.665Z,23.57
2018-07-22T01:05:06.627Z,25.07
2018-07-22T01:07:34.395Z,22.93
2018-07-22T01:10:02.130Z,22.30
2018-07-22T01:12:29.862Z,24.33
2018-07-22T01:14:57.650Z,23.10
2018-07-22T01:17:25.410Z,23.23
2018-07-22T01:19:53.223Z,19.90
2018-07-22T01:22:21.163Z,21.30
2018-07-22T01:24:48.995Z,20.50
2018-07-22T01:27:17.066Z,21.30
2018-07-22T01:29:44.763Z,21.43
2018-07-22T01:32:12.526Z,20.83
2018-07-22T01:34:40.243Z,22.37
2018-07-22T01:37:08.024Z,20.00
2018-07-22T01:39:35.730Z,20.53
2018-07-22T01:42:03.537Z,24.60
2018-07-22T01:44:31.310Z,28.47
2018-07-22T01:46:59.030Z,28.00
2018-07-22T01:49:26.806Z,29.67
2018-07-22T01:51:54.543Z,28.80
2018-07-22T01:54:22.283Z,26.47
2018-07-22T01:56:50.066Z,26.00
2018-07-22T01:59:17.832Z,27.17
2018-07-22T02:01:45.645Z,26.90
2018-07-22T02:04:13.401Z,26.93
2018-07-22T02:06:41.138Z,26.60
2018-07-22T02:09:10.009Z,27.00
2018-07-22T02:11:37.765Z,29.00
2018-07-22T02:14:05.506Z,24.80
2018-07-22T02:16:33.218Z,27.00
2018-07-22T02:19:01.044Z,23.50
2018-07-22T02:21:28.890Z,21.87
2018-07-22T02:23:56.619Z,22.40
2018-07-22T02:26:24.401Z,24.13
2018-07-22T02:28:52.175Z,23.40
2018-07-22T02:31:19.899Z,24.80
2018-07-22T02:33:47.635Z,23.07
2018-07-22T02:36:15.374Z,23.00
2018-07-22T02:38:43.126Z,23.80
2018-07-22T02:41:10.826Z,22.70
2018-07-22T02:43:38.498Z,24.23
2018-07-22T02:46:06.339Z,23.63
2018-07-22T02:48:34.096Z,28.17
2018-07-22T02:51:01.893Z,27.63
2018-07-22T02:53:29.614Z,24.60
2018-07-22T02:55:57.351Z,26.63
2018-07-22T02:58:25.114Z,23.97
2018-07-22T03:00:52.871Z,24.80
2018-07-22T03:03:20.583Z,25.77
2018-07-22T03:05:48.154Z,24.73
2018-07-22T03:08:15.962Z,24.57
2018-07-22T03:10:43.631Z,27.90
2018-07-22T03:13:11.392Z,26.97
2018-07-22T03:15:39.304Z,26.97
2018-07-22T03:18:07.067Z,28.90
2018-07-22T03:20:34.816Z,28.90
2018-07-22T03:23:02.455Z,24.83
2018-07-22T03:25:30.208Z,25.50
2018-07-22T03:27:57.934Z,25.90
2018-07-22T03:30:25.662Z,25.73
2018-07-22T03:32:53.440Z,23.33
2018-07-22T03:35:21.160Z,27.30
2018-07-22T03:37:48.911Z,27.03
2018-07-22T03:40:16.618Z,28.67
2018-07-22T03:42:44.332Z,26.63
2018-07-22T19:29:05.350Z,22.03
2018-07-22T19:31:33.085Z,23.00
2018-07-22T19:34:00.942Z,22.00
2018-07-22T19:36:29.029Z,24.03
2018-07-22T19:38:57.073Z,23.50
2018-07-22T19:41:24.993Z,22.50
2018-07-22T19:43:52.980Z,21.70
2018-07-22T19:46:21.004Z,23.20
2018-07-22T19:48:48.928Z,22.43
2018-07-22T19:51:16.895Z,22.17
2018-07-22T19:53:45.500Z,24.80
2018-07-22T19:56:13.323Z,23.90
2018-07-22T19:58:41.193Z,26.13
2018-07-22T20:01:09.178Z,24.83
2018-07-22T20:03:37.031Z,25.50
2018-07-22T20:06:04.974Z,25.97
2018-07-22T20:08:32.738Z,24.43
2018-07-22T20:11:00.515Z,27.43
2018-07-22T20:13:28.254Z,26.30
2018-07-22T20:15:56.142Z,24.57
2018-07-22T20:18:24.016Z,25.80
2018-07-22T20:20:51.914Z,25.20
2018-07-22T20:23:19.672Z,25.60
2018-07-22T20:25:47.543Z,25.67
2018-07-22T20:28:15.419Z,23.90
2018-07-22T20:30:43.186Z,24.63
2018-07-22T20:33:11.022Z,23.83
2018-07-22T20:35:38.922Z,24.03
2018-07-22T20:38:06.790Z,25.20
2018-07-22T20:40:34.450Z,25.30
2018-07-22T20:43:02.542Z,23.97
2018-07-22T20:45:30.402Z,23.07
2018-07-22T20:47:58.334Z,23.23
2018-07-22T20:50:26.235Z,24.70
2018-07-22T20:52:54.076Z,23.73
2018-07-22T20:55:21.875Z,25.03
2018-07-22T20:57:49.821Z,24.50
2018-07-22T21:00:17.750Z,24.63
2018-07-22T21:02:45.551Z,26.10
2018-07-22T21:05:13.407Z,25.53
2018-07-22T21:07:41.120Z,25.57
2018-07-22T21:10:08.907Z,27.63
2018-07-22T21:12:50.056Z,30.47
2018-07-22T21:15:18.047Z,29.90
2018-07-22T21:17:46.918Z,30.80
2018-07-22T21:20:15.535Z,30.80
2018-07-22T21:22:43.307Z,31.90
2018-07-22T21:25:11.508Z,31.50
2018-07-22T21:27:39.263Z,30.47
2018-07-22T21:30:08.107Z,31.47
2018-07-22T21:32:35.864Z,29.93
2018-07-22T21:35:03.731Z,30.17
2018-07-22T21:37:31.442Z,28.13
2018-07-22T21:39:59.240Z,29.33
2018-07-22T21:42:27.006Z,28.40
2018-07-22T21:44:54.767Z,29.40
2018-07-22T21:47:22.540Z,31.30
2018-07-22T21:49:50.382Z,30.30
2018-07-22T21:52:18.079Z,35.27
2018-07-22T21:54:45.925Z,34.20
2018-07-22T21:57:13.664Z,33.70
2018-07-22T21:59:41.394Z,34.10
2018-07-22T22:02:09.221Z,33.97
2018-07-22T22:04:36.983Z,36.57
2018-07-22T22:07:04.786Z,35.87
2018-07-22T22:09:32.691Z,37.20
2018-07-22T22:12:00.410Z,39.07
2018-07-22T22:14:28.200Z,36.83
2018-07-22T22:16:56.010Z,36.60
2018-07-22T22:19:23.799Z,40.47
2018-07-22T22:21:51.596Z,41.00
2018-07-22T22:24:19.592Z,41.70
2018-07-22T22:26:47.387Z,42.63
2018-07-22T22:29:15.336Z,41.33
2018-07-22T22:31:43.156Z,45.13
2018-07-22T22:34:10.898Z,42.70
2018-07-22T22:36:38.807Z,42.63
2018-07-22T22:39:08.691Z,41.83
2018-07-22T22:41:36.465Z,41.90
2018-07-22T22:44:04.367Z,38.77
2018-07-22T22:46:32.183Z,36.40
2018-07-22T22:48:59.956Z,35.67
2018-07-22T22:51:27.798Z,35.97
2018-07-22T22:53:55.552Z,34.30
2018-07-22T22:56:23.330Z,36.27
2018-07-22T22:59:02.486Z,37.03
2018-07-22T23:01:30.330Z,34.70
2018-07-22T23:03:58.131Z,37.30
2018-07-22T23:06:26.178Z,35.73
2018-07-22T23:08:53.990Z,36.27
2018-07-22T23:11:21.630Z,36.77
2018-07-22T23:13:49.425Z,35.80
2018-07-22T23:16:17.366Z,37.87
2018-07-22T23:18:45.144Z,36.70
2018-07-22T23:21:12.996Z,36.97
2018-07-22T23:23:40.803Z,31.60
2018-07-22T23:26:08.651Z,32.73
2018-07-22T23:28:36.390Z,32.83
2018-07-22T23:31:04.274Z,30.90
2018-07-22T23:33:32.074Z,27.43
2018-07-22T23:35:59.887Z,26.83
2018-07-22T23:38:27.678Z,26.63
2018-07-22T23:40:55.528Z,26.60
2018-07-22T23:43:23.367Z,26.50
2018-07-22T23:45:51.032Z,26.57
2018-07-22T23:48:18.807Z,24.40
2018-07-22T23:50:46.623Z,27.63
2018-07-22T23:53:14.426Z,27.00
2018-07-22T23:55:42.272Z,26.03
2018-07-22T23:58:10.028Z,28.83
